Terminal Aerodrome Forecast
Issued by NWS Albuquerque, NM

Home | Current Version | Previous Version | Text Only | Print | Product List | Glossary On
Versions: 1 2 3 4 5 6 7 8 9 10 11 12 13 14 15 16 17 18 19
000
FTUS45 KABQ 221750
TAFABQ
TAF
KABQ 221750Z 2218/2318 22008KT P6SM SCT050 BKN200
     FM221930 18014G24KT P6SM SCT070 BKN200
     FM222200 19021G32KT P6SM SCT090
     FM230200 16010KT P6SM FEW100
     FM230700 VRB05KT P6SM SKC=

USA.gov is the U.S. government's official web portal to all federal, state and local government web resources and services.